sensor_id;sensor_type;location;lat;lon;timestamp;temperature;humidity
34698;DHT22;61391;50.922;6.928;2023-05-23T00:01:14;17.50;99.90
34698;DHT22;61391;50.922;6.928;2023-05-23T00:03:41;17.50;99.90
34698;DHT22;61391;50.922;6.928;2023-05-23T00:06:07;17.40;99.90
34698;DHT22;61391;50.922;6.928;2023-05-23T00:08:33;17.30;99.90
34698;DHT22;61391;50.922;6.928;2023-05-23T00:10:58;17.30;99.90
34698;DHT22;61391;50.922;6.928;2023-05-23T00:13:24;17.40;99.90
34698;DHT22;61391;50.922;6.928;2023-05-23T00:15:51;17.50;99.90
34698;DHT22;61391;50.922;6.928;2023-05-23T00:18:16;17.30;99.90
34698;DHT22;61391;50.922;6.928;2023-05-23T00:24:04;17.50;99.90
34698;DHT22;61391;50.922;6.928;2023-05-23T00:26:31;17.40;99.90
34698;DHT22;61391;50.922;6.928;2023-05-23T00:28:57;17.40;99.90
34698;DHT22;61391;50.922;6.928;2023-05-23T00:31:23;17.50;99.90
34698;DHT22;61391;50.922;6.928;2023-05-23T00:33:48;17.60;99.90
34698;DHT22;61391;50.922;6.928;2023-05-23T00:36:14;17.50;99.90
34698;DHT22;61391;50.922;6.928;2023-05-23T00:38:39;17.30;99.90
34698;DHT22;61391;50.922;6.928;2023-05-23T00:41:05;17.20;99.90
34698;DHT22;61391;50.922;6.928;2023-05-23T00:43:31;17.30;99.90
34698;DHT22;61391;50.922;6.928;2023-05-23T00:45:57;17.30;99.90
34698;DHT22;61391;50.922;6.928;2023-05-23T00:48:25;17.30;99.90
34698;DHT22;61391;50.922;6.928;2023-05-23T00:50:52;17.10;99.90
34698;DHT22;61391;50.922;6.928;2023-05-23T00:53:18;17.20;99.90
34698;DHT22;61391;50.922;6.928;2023-05-23T00:59:06;17.30;99.90
34698;DHT22;61391;50.922;6.928;2023-05-23T01:01:32;17.30;99.90
34698;DHT22;61391;50.922;6.928;2023-05-23T01:03:58;17.20;99.90
34698;DHT22;61391;50.922;6.928;2023-05-23T01:06:23;17.30;99.90
34698;DHT22;61391;50.922;6.928;2023-05-23T01:13:12;17.50;99.90
34698;DHT22;61391;50.922;6.928;2023-05-23T01:15:14;17.50;99.90
34698;DHT22;61391;50.922;6.928;2023-05-23T01:18:17;17.50;99.90
34698;DHT22;61391;50.922;6.928;2023-05-23T01:20:52;17.50;99.90
34698;DHT22;61391;50.922;6.928;2023-05-23T01:28:46;17.70;99.90
34698;DHT22;61391;50.922;6.928;2023-05-23T01:31:15;17.70;99.90
34698;DHT22;61391;50.922;6.928;2023-05-23T01:33:41;17.70;99.90
34698;DHT22;61391;50.922;6.928;2023-05-23T01:36:08;17.70;99.90
34698;DHT22;61391;50.922;6.928;2023-05-23T01:38:37;17.70;99.90
34698;DHT22;61391;50.922;6.928;2023-05-23T01:41:02;17.80;99.90
34698;DHT22;61391;50.922;6.928;2023-05-23T01:43:28;17.80;99.90
34698;DHT22;61391;50.922;6.928;2023-05-23T01:45:55;17.60;99.90
34698;DHT22;61391;50.922;6.928;2023-05-23T01:48:22;17.50;99.90
34698;DHT22;61391;50.922;6.928;2023-05-23T01:50:48;17.40;99.90
34698;DHT22;61391;50.922;6.928;2023-05-23T01:53:15;17.40;99.90
34698;DHT22;61391;50.922;6.928;2023-05-23T01:55:41;17.60;99.90
34698;DHT22;61391;50.922;6.928;2023-05-23T01:58:08;17.60;99.90
34698;DHT22;61391;50.922;6.928;2023-05-23T02:00:33;17.50;99.90
34698;DHT22;61391;50.922;6.928;2023-05-23T02:02:59;17.40;99.90
34698;DHT22;61391;50.922;6.928;2023-05-23T02:05:25;17.60;99.90
34698;DHT22;61391;50.922;6.928;2023-05-23T02:07:51;17.60;99.90
34698;DHT22;61391;50.922;6.928;2023-05-23T02:10:18;17.50;99.90
34698;DHT22;61391;50.922;6.928;2023-05-23T02:12:44;17.50;99.90
34698;DHT22;61391;50.922;6.928;2023-05-23T02:15:09;17.40;99.90
34698;DHT22;61391;50.922;6.928;2023-05-23T02:17:35;17.30;99.90
34698;DHT22;61391;50.922;6.928;2023-05-23T02:20:03;17.30;99.90
34698;DHT22;61391;50.922;6.928;2023-05-23T02:22:29;17.10;99.90
34698;DHT22;61391;50.922;6.928;2023-05-23T02:24:54;17.10;99.90
34698;DHT22;61391;50.922;6.928;2023-05-23T02:27:21;17.30;99.90
34698;DHT22;61391;50.922;6.928;2023-05-23T02:29:47;17.50;99.90
34698;DHT22;61391;50.922;6.928;2023-05-23T02:32:12;17.50;99.90
34698;DHT22;61391;50.922;6.928;2023-05-23T02:34:38;17.50;99.90
34698;DHT22;61391;50.922;6.928;2023-05-23T02:37:04;17.50;99.90
34698;DHT22;61391;50.922;6.928;2023-05-23T02:39:30;17.60;99.90
34698;DHT22;61391;50.922;6.928;2023-05-23T02:41:55;17.50;99.90
34698;DHT22;61391;50.922;6.928;2023-05-23T02:44:21;17.50;99.90
34698;DHT22;61391;50.922;6.928;2023-05-23T02:46:46;17.60;99.90
34698;DHT22;61391;50.922;6.928;2023-05-23T02:49:21;17.40;99.90
34698;DHT22;61391;50.922;6.928;2023-05-23T02:51:47;17.50;99.90
34698;DHT22;61391;50.922;6.928;2023-05-23T02:54:12;17.50;99.90
34698;DHT22;61391;50.922;6.928;2023-05-23T02:56:38;17.50;99.90
34698;DHT22;61391;50.922;6.928;2023-05-23T02:59:04;17.40;99.90
34698;DHT22;61391;50.922;6.928;2023-05-23T03:01:30;17.50;99.90
34698;DHT22;61391;50.922;6.928;2023-05-23T03:03:56;17.50;99.90
34698;DHT22;61391;50.922;6.928;2023-05-23T03:06:21;17.60;99.90
34698;DHT22;61391;50.922;6.928;2023-05-23T03:08:47;17.60;99.90
34698;DHT22;61391;50.922;6.928;2023-05-23T03:11:13;17.50;99.90
34698;DHT22;61391;50.922;6.928;2023-05-23T03:13:38;17.60;99.90
34698;DHT22;61391;50.922;6.928;2023-05-23T03:19:26;17.40;99.90
34698;DHT22;61391;50.922;6.928;2023-05-23T03:21:51;17.30;99.90
34698;DHT22;61391;50.922;6.928;2023-05-23T03:24:17;17.40;99.90
34698;DHT22;61391;50.922;6.928;2023-05-23T03:26:43;17.50;99.90
34698;DHT22;61391;50.922;6.928;2023-05-23T03:29:09;17.50;99.90
34698;DHT22;61391;50.922;6.928;2023-05-23T03:31:35;17.50;99.90
34698;DHT22;61391;50.922;6.928;2023-05-23T03:34:01;17.30;99.90
34698;DHT22;61391;50.922;6.928;2023-05-23T03:36:27;17.20;99.90
34698;DHT22;61391;50.922;6.928;2023-05-23T03:38:53;17.10;99.90
34698;DHT22;61391;50.922;6.928;2023-05-23T03:41:18;17.00;99.90
34698;DHT22;61391;50.922;6.928;2023-05-23T03:43:44;17.20;99.90
34698;DHT22;61391;50.922;6.928;2023-05-23T03:46:10;17.00;99.90
34698;DHT22;61391;50.922;6.928;2023-05-23T03:48:37;17.00;99.90
34698;DHT22;61391;50.922;6.928;2023-05-23T03:51:02;16.90;99.90
34698;DHT22;61391;50.922;6.928;2023-05-23T03:53:28;16.80;99.90
34698;DHT22;61391;50.922;6.928;2023-05-23T03:55:53;16.70;99.90
34698;DHT22;61391;50.922;6.928;2023-05-23T03:58:19;16.80;99.90
34698;DHT22;61391;50.922;6.928;2023-05-23T04:00:45;16.80;99.90
34698;DHT22;61391;50.922;6.928;2023-05-23T04:03:11;16.70;99.90
34698;DHT22;61391;50.922;6.928;2023-05-23T04:05:39;16.80;99.90
34698;DHT22;61391;50.922;6.928;2023-05-23T04:11:27;16.90;99.90
34698;DHT22;61391;50.922;6.928;2023-05-23T04:13:53;17.00;99.90
34698;DHT22;61391;50.922;6.928;2023-05-23T04:16:18;16.90;99.90
34698;DHT22;61391;50.922;6.928;2023-05-23T04:18:46;16.90;99.90
34698;DHT22;61391;50.922;6.928;2023-05-23T04:21:12;16.90;99.90
34698;DHT22;61391;50.922;6.928;2023-05-23T04:27:00;16.90;99.90
34698;DHT22;61391;50.922;6.928;2023-05-23T04:29:26;17.00;99.90
34698;DHT22;61391;50.922;6.928;2023-05-23T04:35:14;17.00;99.90
34698;DHT22;61391;50.922;6.928;2023-05-23T04:37:39;17.10;99.90
34698;DHT22;61391;50.922;6.928;2023-05-23T04:40:07;17.10;99.90
34698;DHT22;61391;50.922;6.928;2023-05-23T04:42:33;17.10;99.90
34698;DHT22;61391;50.922;6.928;2023-05-23T04:44:59;17.10;99.90
34698;DHT22;61391;50.922;6.928;2023-05-23T04:47:26;17.10;99.90
34698;DHT22;61391;50.922;6.928;2023-05-23T04:49:53;17.20;99.90
34698;DHT22;61391;50.922;6.928;2023-05-23T04:52:19;17.30;99.90
34698;DHT22;61391;50.922;6.928;2023-05-23T04:54:45;17.10;99.90
34698;DHT22;61391;50.922;6.928;2023-05-23T04:57:50;17.30;99.90
34698;DHT22;61391;50.922;6.928;2023-05-23T05:00:16;17.30;99.90
34698;DHT22;61391;50.922;6.928;2023-05-23T05:06:04;17.40;99.90
34698;DHT22;61391;50.922;6.928;2023-05-23T05:08:30;17.50;99.90
34698;DHT22;61391;50.922;6.928;2023-05-23T05:14:18;17.40;99.90
34698;DHT22;61391;50.922;6.928;2023-05-23T05:16:43;17.30;99.90
34698;DHT22;61391;50.922;6.928;2023-05-23T05:19:10;17.30;99.90
34698;DHT22;61391;50.922;6.928;2023-05-23T05:21:35;17.30;99.90
34698;DHT22;61391;50.922;6.928;2023-05-23T05:24:01;17.20;99.90
34698;DHT22;61391;50.922;6.928;2023-05-23T05:29:49;17.10;99.90
34698;DHT22;61391;50.922;6.928;2023-05-23T05:32:14;16.90;99.90
34698;DHT22;61391;50.922;6.928;2023-05-23T05:34:40;16.90;99.90
34698;DHT22;61391;50.922;6.928;2023-05-23T05:37:09;16.90;99.90
34698;DHT22;61391;50.922;6.928;2023-05-23T05:39:34;16.90;99.90
34698;DHT22;61391;50.922;6.928;2023-05-23T05:42:00;17.10;99.90
34698;DHT22;61391;50.922;6.928;2023-05-23T05:44:28;17.30;99.90
34698;DHT22;61391;50.922;6.928;2023-05-23T05:46:53;17.30;99.90
34698;DHT22;61391;50.922;6.928;2023-05-23T05:49:19;17.40;99.90
34698;DHT22;61391;50.922;6.928;2023-05-23T05:58:34;17.40;99.90
34698;DHT22;61391;50.922;6.928;2023-05-23T06:04:25;17.30;99.90
34698;DHT22;61391;50.922;6.928;2023-05-23T06:10:13;17.30;99.90
34698;DHT22;61391;50.922;6.928;2023-05-23T06:19:27;17.30;99.90
34698;DHT22;61391;50.922;6.928;2023-05-23T06:21:53;17.20;99.90
34698;DHT22;61391;50.922;6.928;2023-05-23T06:24:21;17.20;99.90
34698;DHT22;61391;50.922;6.928;2023-05-23T06:26:50;17.30;99.90
34698;DHT22;61391;50.922;6.928;2023-05-23T06:29:15;17.30;99.90
34698;DHT22;61391;50.922;6.928;2023-05-23T06:31:41;17.20;99.90
34698;DHT22;61391;50.922;6.928;2023-05-23T06:34:06;17.30;99.90
34698;DHT22;61391;50.922;6.928;2023-05-23T06:36:32;17.40;99.90
34698;DHT22;61391;50.922;6.928;2023-05-23T06:38:58;17.60;99.90
34698;DHT22;61391;50.922;6.928;2023-05-23T06:41:23;17.40;99.90
34698;DHT22;61391;50.922;6.928;2023-05-23T06:43:49;17.50;99.90
34698;DHT22;61391;50.922;6.928;2023-05-23T06:46:14;17.60;99.90
34698;DHT22;61391;50.922;6.928;2023-05-23T06:48:40;17.60;99.90
34698;DHT22;61391;50.922;6.928;2023-05-23T06:51:06;17.70;99.90
34698;DHT22;61391;50.922;6.928;2023-05-23T06:53:31;17.80;99.90
34698;DHT22;61391;50.922;6.928;2023-05-23T06:55:57;17.70;99.90
34698;DHT22;61391;50.922;6.928;2023-05-23T06:58:23;17.60;99.90
34698;DHT22;61391;50.922;6.928;2023-05-23T07:04:11;17.50;99.90
34698;DHT22;61391;50.922;6.928;2023-05-23T07:09:58;17.70;99.90
34698;DHT22;61391;50.922;6.928;2023-05-23T07:12:24;17.80;99.90
34698;DHT22;61391;50.922;6.928;2023-05-23T07:14:50;17.90;99.90
34698;DHT22;61391;50.922;6.928;2023-05-23T07:17:15;17.90;99.90
34698;DHT22;61391;50.922;6.928;2023-05-23T07:19:41;18.10;99.90
34698;DHT22;61391;50.922;6.928;2023-05-23T07:22:06;18.30;99.90
34698;DHT22;61391;50.922;6.928;2023-05-23T07:24:32;18.40;99.90
34698;DHT22;61391;50.922;6.928;2023-05-23T07:26:57;18.30;99.90
34698;DHT22;61391;50.922;6.928;2023-05-23T07:29:24;18.20;99.90
34698;DHT22;61391;50.922;6.928;2023-05-23T07:31:50;18.30;99.90
34698;DHT22;61391;50.922;6.928;2023-05-23T07:34:15;18.10;99.90
34698;DHT22;61391;50.922;6.928;2023-05-23T07:36:41;18.10;99.90
34698;DHT22;61391;50.922;6.928;2023-05-23T07:42:28;17.80;99.90
34698;DHT22;61391;50.922;6.928;2023-05-23T07:44:54;17.80;99.90
34698;DHT22;61391;50.922;6.928;2023-05-23T07:47:19;17.60;99.90
34698;DHT22;61391;50.922;6.928;2023-05-23T07:49:45;17.70;99.90
34698;DHT22;61391;50.922;6.928;2023-05-23T07:52:12;17.90;99.90
34698;DHT22;61391;50.922;6.928;2023-05-23T07:54:37;17.90;99.90
34698;DHT22;61391;50.922;6.928;2023-05-23T07:57:03;17.90;99.90
34698;DHT22;61391;50.922;6.928;2023-05-23T07:59:29;18.00;99.90
34698;DHT22;61391;50.922;6.928;2023-05-23T08:01:54;17.80;99.90
34698;DHT22;61391;50.922;6.928;2023-05-23T08:07:42;18.20;99.90
34698;DHT22;61391;50.922;6.928;2023-05-23T08:10:08;18.10;99.90
34698;DHT22;61391;50.922;6.928;2023-05-23T08:12:33;18.10;99.90
34698;DHT22;61391;50.922;6.928;2023-05-23T08:14:59;17.90;99.90
34698;DHT22;61391;50.922;6.928;2023-05-23T08:17:25;17.90;99.90
34698;DHT22;61391;50.922;6.928;2023-05-23T08:19:51;18.00;99.90
34698;DHT22;61391;50.922;6.928;2023-05-23T08:22:16;18.20;99.90
34698;DHT22;61391;50.922;6.928;2023-05-23T08:24:42;17.90;99.90
34698;DHT22;61391;50.922;6.928;2023-05-23T08:27:07;17.90;99.90
34698;DHT22;61391;50.922;6.928;2023-05-23T08:29:33;17.90;99.90
34698;DHT22;61391;50.922;6.928;2023-05-23T08:31:59;18.10;99.90
34698;DHT22;61391;50.922;6.928;2023-05-23T08:34:25;18.10;99.90
34698;DHT22;61391;50.922;6.928;2023-05-23T08:36:51;17.80;99.90
34698;DHT22;61391;50.922;6.928;2023-05-23T08:39:17;17.60;99.90
34698;DHT22;61391;50.922;6.928;2023-05-23T08:41:43;17.80;99.90
34698;DHT22;61391;50.922;6.928;2023-05-23T08:44:09;17.80;99.90
34698;DHT22;61391;50.922;6.928;2023-05-23T08:46:40;18.00;99.90
34698;DHT22;61391;50.922;6.928;2023-05-23T08:49:09;18.00;99.90
34698;DHT22;61391;50.922;6.928;2023-05-23T08:51:37;17.90;99.90
34698;DHT22;61391;50.922;6.928;2023-05-23T08:54:06;17.60;99.90
34698;DHT22;61391;50.922;6.928;2023-05-23T08:56:34;17.30;99.90
34698;DHT22;61391;50.922;6.928;2023-05-23T08:59:01;17.30;99.90
34698;DHT22;61391;50.922;6.928;2023-05-23T09:01:28;17.40;99.90
34698;DHT22;61391;50.922;6.928;2023-05-23T09:03:55;17.30;99.90
34698;DHT22;61391;50.922;6.928;2023-05-23T09:06:24;17.50;99.90
34698;DHT22;61391;50.922;6.928;2023-05-23T09:08:50;17.50;99.90
34698;DHT22;61391;50.922;6.928;2023-05-23T09:11:16;17.60;99.90
34698;DHT22;61391;50.922;6.928;2023-05-23T09:13:41;17.60;99.90
34698;DHT22;61391;50.922;6.928;2023-05-23T09:16:10;17.70;99.90
34698;DHT22;61391;50.922;6.928;2023-05-23T09:18:39;17.70;99.90
34698;DHT22;61391;50.922;6.928;2023-05-23T09:21:07;18.00;99.90
34698;DHT22;61391;50.922;6.928;2023-05-23T09:23:34;17.90;99.90
34698;DHT22;61391;50.922;6.928;2023-05-23T09:26:04;17.60;99.90
34698;DHT22;61391;50.922;6.928;2023-05-23T09:28:33;17.70;99.90
34698;DHT22;61391;50.922;6.928;2023-05-23T09:31:03;17.70;99.90
34698;DHT22;61391;50.922;6.928;2023-05-23T09:33:47;17.80;99.90
34698;DHT22;61391;50.922;6.928;2023-05-23T09:36:14;17.60;99.90
34698;DHT22;61391;50.922;6.928;2023-05-23T09:38:42;17.50;99.90
34698;DHT22;61391;50.922;6.928;2023-05-23T09:41:09;17.40;99.90
34698;DHT22;61391;50.922;6.928;2023-05-23T09:44:03;17.30;99.90
34698;DHT22;61391;50.922;6.928;2023-05-23T09:46:27;17.20;99.90
34698;DHT22;61391;50.922;6.928;2023-05-23T09:48:54;17.20;99.90
34698;DHT22;61391;50.922;6.928;2023-05-23T09:51:22;17.10;99.90
34698;DHT22;61391;50.922;6.928;2023-05-23T09:53:51;17.10;99.90
34698;DHT22;61391;50.922;6.928;2023-05-23T09:56:18;16.90;99.90
34698;DHT22;61391;50.922;6.928;2023-05-23T09:58:47;16.80;99.90
34698;DHT22;61391;50.922;6.928;2023-05-23T10:01:13;16.80;99.90
34698;DHT22;61391;50.922;6.928;2023-05-23T10:03:49;16.90;99.90
34698;DHT22;61391;50.922;6.928;2023-05-23T10:06:25;16.90;99.90
34698;DHT22;61391;50.922;6.928;2023-05-23T10:08:58;16.90;99.90
34698;DHT22;61391;50.922;6.928;2023-05-23T10:14:20;17.10;99.90
34698;DHT22;61391;50.922;6.928;2023-05-23T10:17:01;17.10;99.90
34698;DHT22;61391;50.922;6.928;2023-05-23T10:19:42;17.30;99.90
34698;DHT22;61391;50.922;6.928;2023-05-23T10:22:12;17.30;99.90
34698;DHT22;61391;50.922;6.928;2023-05-23T10:24:38;17.30;99.90
34698;DHT22;61391;50.922;6.928;2023-05-23T10:27:05;17.50;99.90
34698;DHT22;61391;50.922;6.928;2023-05-23T10:29:32;17.90;99.90
34698;DHT22;61391;50.922;6.928;2023-05-23T10:31:58;18.20;99.90
34698;DHT22;61391;50.922;6.928;2023-05-23T10:34:39;19.60;99.90
34698;DHT22;61391;50.922;6.928;2023-05-23T10:37:07;21.50;99.90
34698;DHT22;61391;50.922;6.928;2023-05-23T10:45:16;21.00;99.90
34698;DHT22;61391;50.922;6.928;2023-05-23T10:47:41;20.30;99.90
34698;DHT22;61391;50.922;6.928;2023-05-23T10:53:30;19.90;99.90
34698;DHT22;61391;50.922;6.928;2023-05-23T10:55:56;20.00;99.90
34698;DHT22;61391;50.922;6.928;2023-05-23T10:58:22;19.70;99.90
34698;DHT22;61391;50.922;6.928;2023-05-23T11:00:56;19.70;99.90
34698;DHT22;61391;50.922;6.928;2023-05-23T11:03:31;19.50;99.90
34698;DHT22;61391;50.922;6.928;2023-05-23T11:05:58;19.30;99.90
34698;DHT22;61391;50.922;6.928;2023-05-23T11:08:25;19.10;99.90
34698;DHT22;61391;50.922;6.928;2023-05-23T11:11:01;19.00;99.90
34698;DHT22;61391;50.922;6.928;2023-05-23T11:16:50;18.60;99.90
34698;DHT22;61391;50.922;6.928;2023-05-23T11:21:59;18.60;99.90
34698;DHT22;61391;50.922;6.928;2023-05-23T11:24:48;18.60;99.90
34698;DHT22;61391;50.922;6.928;2023-05-23T11:27:26;18.80;99.90
34698;DHT22;61391;50.922;6.928;2023-05-23T11:30:00;18.90;99.90
34698;DHT22;61391;50.922;6.928;2023-05-23T11:32:30;18.90;99.90
34698;DHT22;61391;50.922;6.928;2023-05-23T11:35:07;18.80;99.90
34698;DHT22;61391;50.922;6.928;2023-05-23T11:37:34;18.80;99.90
34698;DHT22;61391;50.922;6.928;2023-05-23T11:40:32;18.60;99.90
34698;DHT22;61391;50.922;6.928;2023-05-23T11:43:04;18.50;99.90
34698;DHT22;61391;50.922;6.928;2023-05-23T11:45:31;18.50;99.90
34698;DHT22;61391;50.922;6.928;2023-05-23T11:47:57;18.50;99.90
34698;DHT22;61391;50.922;6.928;2023-05-23T11:50:23;18.70;99.90
34698;DHT22;61391;50.922;6.928;2023-05-23T11:52:49;19.10;99.90
34698;DHT22;61391;50.922;6.928;2023-05-23T11:55:21;19.50;99.90
34698;DHT22;61391;50.922;6.928;2023-05-23T11:57:47;19.70;99.90
34698;DHT22;61391;50.922;6.928;2023-05-23T12:00:14;20.30;99.90
34698;DHT22;61391;50.922;6.928;2023-05-23T12:02:41;21.20;99.90
34698;DHT22;61391;50.922;6.928;2023-05-23T12:05:11;21.80;99.90
34698;DHT22;61391;50.922;6.928;2023-05-23T12:07:48;21.10;99.90
34698;DHT22;61391;50.922;6.928;2023-05-23T12:10:14;21.40;99.90
34698;DHT22;61391;50.922;6.928;2023-05-23T12:12:46;21.40;99.90
34698;DHT22;61391;50.922;6.928;2023-05-23T12:15:13;21.40;99.90
34698;DHT22;61391;50.922;6.928;2023-05-23T12:17:45;21.20;99.90
34698;DHT22;61391;50.922;6.928;2023-05-23T12:20:11;20.80;99.90
34698;DHT22;61391;50.922;6.928;2023-05-23T12:22:37;20.90;99.90
34698;DHT22;61391;50.922;6.928;2023-05-23T12:25:07;20.80;99.90
34698;DHT22;61391;50.922;6.928;2023-05-23T12:27:34;20.90;99.90
34698;DHT22;61391;50.922;6.928;2023-05-23T12:30:10;21.10;99.90
34698;DHT22;61391;50.922;6.928;2023-05-23T12:32:39;21.70;99.90
34698;DHT22;61391;50.922;6.928;2023-05-23T12:35:06;21.90;99.90
34698;DHT22;61391;50.922;6.928;2023-05-23T12:37:31;21.90;99.90
34698;DHT22;61391;50.922;6.928;2023-05-23T12:39:57;21.60;99.90
34698;DHT22;61391;50.922;6.928;2023-05-23T12:42:23;21.20;99.90
34698;DHT22;61391;50.922;6.928;2023-05-23T12:44:50;20.60;99.90
34698;DHT22;61391;50.922;6.928;2023-05-23T12:47:16;20.30;99.90
34698;DHT22;61391;50.922;6.928;2023-05-23T12:49:42;20.40;99.90
34698;DHT22;61391;50.922;6.928;2023-05-23T12:52:09;20.60;99.90
34698;DHT22;61391;50.922;6.928;2023-05-23T12:54:35;20.90;99.90
34698;DHT22;61391;50.922;6.928;2023-05-23T12:57:00;21.10;99.90
34698;DHT22;61391;50.922;6.928;2023-05-23T12:59:26;21.20;99.90
34698;DHT22;61391;50.922;6.928;2023-05-23T13:01:53;21.20;99.90
34698;DHT22;61391;50.922;6.928;2023-05-23T13:04:19;21.40;99.90
34698;DHT22;61391;50.922;6.928;2023-05-23T13:06:44;21.50;99.90
34698;DHT22;61391;50.922;6.928;2023-05-23T13:09:11;21.40;99.90
34698;DHT22;61391;50.922;6.928;2023-05-23T13:11:38;21.00;99.90
34698;DHT22;61391;50.922;6.928;2023-05-23T13:14:05;20.70;99.90
34698;DHT22;61391;50.922;6.928;2023-05-23T13:16:31;20.80;99.90
34698;DHT22;61391;50.922;6.928;2023-05-23T13:18:57;20.70;99.90
34698;DHT22;61391;50.922;6.928;2023-05-23T13:21:25;20.70;99.90
34698;DHT22;61391;50.922;6.928;2023-05-23T13:23:52;20.80;99.90
34698;DHT22;61391;50.922;6.928;2023-05-23T13:26:17;21.10;99.90
34698;DHT22;61391;50.922;6.928;2023-05-23T13:28:43;21.10;99.90
34698;DHT22;61391;50.922;6.928;2023-05-23T13:31:09;20.70;99.90
34698;DHT22;61391;50.922;6.928;2023-05-23T13:36:57;20.60;99.90
34698;DHT22;61391;50.922;6.928;2023-05-23T13:39:22;20.90;99.90
34698;DHT22;61391;50.922;6.928;2023-05-23T13:41:49;20.90;99.90
34698;DHT22;61391;50.922;6.928;2023-05-23T13:44:15;20.90;99.90
34698;DHT22;61391;50.922;6.928;2023-05-23T13:46:42;20.90;99.90
34698;DHT22;61391;50.922;6.928;2023-05-23T13:49:08;20.30;99.90
34698;DHT22;61391;50.922;6.928;2023-05-23T13:51:33;20.40;99.90
34698;DHT22;61391;50.922;6.928;2023-05-23T13:54:02;20.70;99.90
34698;DHT22;61391;50.922;6.928;2023-05-23T13:56:27;21.00;99.90
34698;DHT22;61391;50.922;6.928;2023-05-23T13:58:53;21.00;99.90
34698;DHT22;61391;50.922;6.928;2023-05-23T14:01:19;20.60;99.90
34698;DHT22;61391;50.922;6.928;2023-05-23T14:03:44;20.70;99.90
34698;DHT22;61391;50.922;6.928;2023-05-23T14:06:10;20.80;99.90
34698;DHT22;61391;50.922;6.928;2023-05-23T14:08:36;20.90;99.90
34698;DHT22;61391;50.922;6.928;2023-05-23T14:11:03;20.90;99.90
34698;DHT22;61391;50.922;6.928;2023-05-23T14:13:28;21.00;99.90
34698;DHT22;61391;50.922;6.928;2023-05-23T14:15:54;21.30;99.90
34698;DHT22;61391;50.922;6.928;2023-05-23T14:18:21;21.40;99.90
34698;DHT22;61391;50.922;6.928;2023-05-23T14:20:47;21.30;99.90
34698;DHT22;61391;50.922;6.928;2023-05-23T14:23:12;21.40;99.90
34698;DHT22;61391;50.922;6.928;2023-05-23T14:25:38;21.30;99.90
34698;DHT22;61391;50.922;6.928;2023-05-23T14:28:04;21.40;99.90
34698;DHT22;61391;50.922;6.928;2023-05-23T14:30:29;21.10;99.90
34698;DHT22;61391;50.922;6.928;2023-05-23T14:32:55;20.60;99.90
34698;DHT22;61391;50.922;6.928;2023-05-23T14:35:21;20.30;99.90
34698;DHT22;61391;50.922;6.928;2023-05-23T14:37:50;20.40;99.90
34698;DHT22;61391;50.922;6.928;2023-05-23T14:40:16;20.40;99.90
34698;DHT22;61391;50.922;6.928;2023-05-23T14:42:42;20.70;99.90
34698;DHT22;61391;50.922;6.928;2023-05-23T14:45:08;20.70;99.90
34698;DHT22;61391;50.922;6.928;2023-05-23T14:47:37;20.70;99.90
34698;DHT22;61391;50.922;6.928;2023-05-23T14:50:03;21.00;99.90
34698;DHT22;61391;50.922;6.928;2023-05-23T14:52:31;21.10;99.90
34698;DHT22;61391;50.922;6.928;2023-05-23T14:54:57;21.40;99.90
34698;DHT22;61391;50.922;6.928;2023-05-23T14:57:24;21.10;99.90
34698;DHT22;61391;50.922;6.928;2023-05-23T14:59:50;20.80;99.90
34698;DHT22;61391;50.922;6.928;2023-05-23T15:02:15;20.70;99.90
34698;DHT22;61391;50.922;6.928;2023-05-23T15:04:41;20.80;99.90
34698;DHT22;61391;50.922;6.928;2023-05-23T15:07:07;20.90;99.90
34698;DHT22;61391;50.922;6.928;2023-05-23T15:09:39;20.90;99.90
34698;DHT22;61391;50.922;6.928;2023-05-23T15:12:05;21.20;99.90
34698;DHT22;61391;50.922;6.928;2023-05-23T15:14:34;21.10;99.90
34698;DHT22;61391;50.922;6.928;2023-05-23T15:17:00;20.70;99.90
34698;DHT22;61391;50.922;6.928;2023-05-23T15:19:32;20.90;99.90
34698;DHT22;61391;50.922;6.928;2023-05-23T15:21:58;21.20;99.90
34698;DHT22;61391;50.922;6.928;2023-05-23T15:24:24;21.00;99.90
34698;DHT22;61391;50.922;6.928;2023-05-23T15:26:49;21.10;99.90
34698;DHT22;61391;50.922;6.928;2023-05-23T15:29:16;20.20;99.90
34698;DHT22;61391;50.922;6.928;2023-05-23T15:31:42;20.20;99.90
34698;DHT22;61391;50.922;6.928;2023-05-23T15:34:09;20.30;99.90
34698;DHT22;61391;50.922;6.928;2023-05-23T15:36:35;20.40;99.90
34698;DHT22;61391;50.922;6.928;2023-05-23T15:39:01;20.70;99.90
34698;DHT22;61391;50.922;6.928;2023-05-23T15:41:28;20.90;99.90
34698;DHT22;61391;50.922;6.928;2023-05-23T15:43:53;21.00;99.90
34698;DHT22;61391;50.922;6.928;2023-05-23T15:46:19;21.30;99.90
34698;DHT22;61391;50.922;6.928;2023-05-23T15:48:46;21.40;99.90
34698;DHT22;61391;50.922;6.928;2023-05-23T15:51:11;21.20;99.90
34698;DHT22;61391;50.922;6.928;2023-05-23T15:53:38;21.00;99.90
34698;DHT22;61391;50.922;6.928;2023-05-23T15:56:04;21.10;99.90
34698;DHT22;61391;50.922;6.928;2023-05-23T15:58:30;21.10;99.90
34698;DHT22;61391;50.922;6.928;2023-05-23T16:00:56;20.80;99.90
34698;DHT22;61391;50.922;6.928;2023-05-23T16:03:23;20.90;99.90
34698;DHT22;61391;50.922;6.928;2023-05-23T16:05:50;20.70;99.90
34698;DHT22;61391;50.922;6.928;2023-05-23T16:08:16;20.70;99.90
34698;DHT22;61391;50.922;6.928;2023-05-23T16:10:42;20.40;99.90
34698;DHT22;61391;50.922;6.928;2023-05-23T16:13:07;20.20;99.90
34698;DHT22;61391;50.922;6.928;2023-05-23T16:15:33;20.00;99.90
34698;DHT22;61391;50.922;6.928;2023-05-23T16:17:59;20.40;99.90
34698;DHT22;61391;50.922;6.928;2023-05-23T16:20:27;20.60;99.90
34698;DHT22;61391;50.922;6.928;2023-05-23T16:22:53;20.60;99.90
34698;DHT22;61391;50.922;6.928;2023-05-23T16:25:18;20.50;99.90
34698;DHT22;61391;50.922;6.928;2023-05-23T16:27:44;20.60;99.90
34698;DHT22;61391;50.922;6.928;2023-05-23T16:30:10;20.60;99.90
34698;DHT22;61391;50.922;6.928;2023-05-23T16:32:36;20.10;99.90
34698;DHT22;61391;50.922;6.928;2023-05-23T16:35:02;20.20;99.90
34698;DHT22;61391;50.922;6.928;2023-05-23T16:37:27;19.90;99.90
34698;DHT22;61391;50.922;6.928;2023-05-23T16:39:54;20.00;99.90
34698;DHT22;61391;50.922;6.928;2023-05-23T16:42:21;19.90;99.90
34698;DHT22;61391;50.922;6.928;2023-05-23T16:44:47;19.90;99.90
34698;DHT22;61391;50.922;6.928;2023-05-23T16:47:12;19.80;99.90
34698;DHT22;61391;50.922;6.928;2023-05-23T16:49:38;19.80;99.90
34698;DHT22;61391;50.922;6.928;2023-05-23T16:52:04;19.60;99.90
34698;DHT22;61391;50.922;6.928;2023-05-23T16:54:31;19.70;99.90
34698;DHT22;61391;50.922;6.928;2023-05-23T16:56:56;19.30;99.90
34698;DHT22;61391;50.922;6.928;2023-05-23T16:59:26;19.10;99.90
34698;DHT22;61391;50.922;6.928;2023-05-23T17:01:52;19.00;99.90
34698;DHT22;61391;50.922;6.928;2023-05-23T17:04:17;18.90;99.90